sensor_id;sensor_type;location;lat;lon;timestamp;pressure;altitude;pressure_sealevel;temperature
24586;BMP280;12743;52.262;6.172;2022-08-04T00:01:07;101009.47;;;23.99
24586;BMP280;12743;52.262;6.172;2022-08-04T00:03:42;100999.78;;;23.86
24586;BMP280;12743;52.262;6.172;2022-08-04T00:06:31;100946.03;;;23.50
24586;BMP280;12743;52.262;6.172;2022-08-04T00:09:03;101011.59;;;23.88
24586;BMP280;12743;52.262;6.172;2022-08-04T00:11:32;100987.72;;;23.55
24586;BMP280;12743;52.262;6.172;2022-08-04T00:14:05;100995.72;;;23.58
24586;BMP280;12743;52.262;6.172;2022-08-04T00:16:36;100989.16;;;23.59
24586;BMP280;12743;52.262;6.172;2022-08-04T00:19:05;100958.63;;;23.53
24586;BMP280;12743;52.262;6.172;2022-08-04T00:21:35;100943.13;;;23.41
24586;BMP280;12743;52.262;6.172;2022-08-04T00:24:02;100951.69;;;23.36
24586;BMP280;12743;52.262;6.172;2022-08-04T00:26:28;100922.28;;;23.10
24586;BMP280;12743;52.262;6.172;2022-08-04T00:28:54;100976.16;;;23.58
24586;BMP280;12743;52.262;6.172;2022-08-04T00:31:20;100984.84;;;23.65
24586;BMP280;12743;52.262;6.172;2022-08-04T00:33:47;100983.44;;;23.57
24586;BMP280;12743;52.262;6.172;2022-08-04T00:36:14;100926.75;;;23.16
24586;BMP280;12743;52.262;6.172;2022-08-04T00:38:42;100963.06;;;23.40
24586;BMP280;12743;52.262;6.172;2022-08-04T00:47:29;100981.00;;;23.43
24586;BMP280;12743;52.262;6.172;2022-08-04T00:55:53;100974.03;;;23.26
24586;BMP280;12743;52.262;6.172;2022-08-04T00:58:28;100974.41;;;23.28
24586;BMP280;12743;52.262;6.172;2022-08-04T01:01:03;100961.13;;;23.21
24586;BMP280;12743;52.262;6.172;2022-08-04T01:09:07;100937.38;;;23.00
24586;BMP280;12743;52.262;6.172;2022-08-04T01:14:38;100955.38;;;23.00
24586;BMP280;12743;52.262;6.172;2022-08-04T01:17:20;100904.19;;;22.67
24586;BMP280;12743;52.262;6.172;2022-08-04T01:19:58;100946.06;;;23.04
24586;BMP280;12743;52.262;6.172;2022-08-04T01:28:33;100950.22;;;23.09
24586;BMP280;12743;52.262;6.172;2022-08-04T01:31:10;100938.53;;;22.99
24586;BMP280;12743;52.262;6.172;2022-08-04T01:33:42;100929.41;;;22.97
24586;BMP280;12743;52.262;6.172;2022-08-04T01:36:08;100930.34;;;22.83
24586;BMP280;12743;52.262;6.172;2022-08-04T01:38:38;100945.59;;;22.86
24586;BMP280;12743;52.262;6.172;2022-08-04T01:41:06;100866.91;;;22.30
24586;BMP280;12743;52.262;6.172;2022-08-04T01:43:34;100926.09;;;22.62
24586;BMP280;12743;52.262;6.172;2022-08-04T01:46:02;100920.75;;;22.62
24586;BMP280;12743;52.262;6.172;2022-08-04T01:48:28;100893.88;;;22.43
24586;BMP280;12743;52.262;6.172;2022-08-04T01:51:04;100928.41;;;22.60
24586;BMP280;12743;52.262;6.172;2022-08-04T01:53:33;100905.72;;;22.42
24586;BMP280;12743;52.262;6.172;2022-08-04T01:56:00;100934.59;;;22.57
24586;BMP280;12743;52.262;6.172;2022-08-04T01:58:29;100919.50;;;22.44
24586;BMP280;12743;52.262;6.172;2022-08-04T02:00:57;100879.72;;;22.16
24586;BMP280;12743;52.262;6.172;2022-08-04T02:03:29;100864.75;;;22.18
24586;BMP280;12743;52.262;6.172;2022-08-04T02:11:28;100872.72;;;22.22
24586;BMP280;12743;52.262;6.172;2022-08-04T02:13:58;100921.63;;;22.52
24586;BMP280;12743;52.262;6.172;2022-08-04T02:16:43;100890.94;;;22.34
24586;BMP280;12743;52.262;6.172;2022-08-04T02:19:16;100906.44;;;22.46
24586;BMP280;12743;52.262;6.172;2022-08-04T02:21:47;100877.00;;;22.19
24586;BMP280;12743;52.262;6.172;2022-08-04T02:24:17;100904.47;;;22.50
24586;BMP280;12743;52.262;6.172;2022-08-04T02:26:48;100861.56;;;22.30
24586;BMP280;12743;52.262;6.172;2022-08-04T02:29:34;100848.56;;;22.29
24586;BMP280;12743;52.262;6.172;2022-08-04T02:32:04;100899.66;;;22.64
24586;BMP280;12743;52.262;6.172;2022-08-04T02:34:58;100890.69;;;22.51
24586;BMP280;12743;52.262;6.172;2022-08-04T02:37:25;100885.22;;;22.32
24586;BMP280;12743;52.262;6.172;2022-08-04T02:39:58;100899.59;;;22.41
24586;BMP280;12743;52.262;6.172;2022-08-04T02:42:25;100878.97;;;22.42
24586;BMP280;12743;52.262;6.172;2022-08-04T02:44:55;100835.09;;;22.09
24586;BMP280;12743;52.262;6.172;2022-08-04T02:47:23;100892.22;;;22.49
24586;BMP280;12743;52.262;6.172;2022-08-04T02:49:50;100868.81;;;22.30
24586;BMP280;12743;52.262;6.172;2022-08-04T02:52:17;100874.53;;;22.32
24586;BMP280;12743;52.262;6.172;2022-08-04T02:54:44;100873.00;;;22.57
24586;BMP280;12743;52.262;6.172;2022-08-04T02:57:13;100858.69;;;22.44
24586;BMP280;12743;52.262;6.172;2022-08-04T03:00:05;100872.97;;;22.34
24586;BMP280;12743;52.262;6.172;2022-08-04T03:05:17;100850.28;;;22.16
24586;BMP280;12743;52.262;6.172;2022-08-04T03:13:36;100864.47;;;22.13
24586;BMP280;12743;52.262;6.172;2022-08-04T03:19:09;100847.88;;;22.25
24586;BMP280;12743;52.262;6.172;2022-08-04T03:30:18;100836.06;;;21.62
24586;BMP280;12743;52.262;6.172;2022-08-04T03:56:08;100843.28;;;21.68
24586;BMP280;12743;52.262;6.172;2022-08-04T04:02:39;100841.22;;;21.46
24586;BMP280;12743;52.262;6.172;2022-08-04T04:10:12;100810.06;;;21.32
24586;BMP280;12743;52.262;6.172;2022-08-04T04:16:19;100845.78;;;21.49
24586;BMP280;12743;52.262;6.172;2022-08-04T04:28:26;100849.47;;;21.25
24586;BMP280;12743;52.262;6.172;2022-08-04T04:45:14;100831.44;;;20.99
24586;BMP280;12743;52.262;6.172;2022-08-04T04:50:47;100846.63;;;21.42
24586;BMP280;12743;52.262;6.172;2022-08-04T04:56:13;100831.81;;;21.34
24586;BMP280;12743;52.262;6.172;2022-08-04T04:58:41;100839.91;;;21.27
24586;BMP280;12743;52.262;6.172;2022-08-04T05:04:28;100878.28;;;21.03
24586;BMP280;12743;52.262;6.172;2022-08-04T05:10:20;100871.72;;;21.15
24586;BMP280;12743;52.262;6.172;2022-08-04T05:15:12;100869.28;;;20.87
24586;BMP280;12743;52.262;6.172;2022-08-04T05:17:39;100880.63;;;20.98
24586;BMP280;12743;52.262;6.172;2022-08-04T05:20:34;100877.03;;;21.18
24586;BMP280;12743;52.262;6.172;2022-08-04T05:22:59;100886.41;;;20.93
24586;BMP280;12743;52.262;6.172;2022-08-04T05:25:38;100853.19;;;20.94
24586;BMP280;12743;52.262;6.172;2022-08-04T05:30:38;100899.66;;;21.44
24586;BMP280;12743;52.262;6.172;2022-08-04T05:33:14;100875.66;;;21.40
24586;BMP280;12743;52.262;6.172;2022-08-04T05:35:45;100876.78;;;21.43
24586;BMP280;12743;52.262;6.172;2022-08-04T05:38:16;100876.53;;;21.64
24586;BMP280;12743;52.262;6.172;2022-08-04T05:40:43;100896.22;;;21.80
24586;BMP280;12743;52.262;6.172;2022-08-04T05:43:10;100822.88;;;21.51
24586;BMP280;12743;52.262;6.172;2022-08-04T05:45:37;100907.09;;;22.27
24586;BMP280;12743;52.262;6.172;2022-08-04T05:48:05;100901.78;;;22.23
24586;BMP280;12743;52.262;6.172;2022-08-04T05:50:32;100883.94;;;22.17
24586;BMP280;12743;52.262;6.172;2022-08-04T05:52:59;100876.88;;;22.00
24586;BMP280;12743;52.262;6.172;2022-08-04T05:55:26;100906.28;;;22.30
24586;BMP280;12743;52.262;6.172;2022-08-04T05:57:52;100868.72;;;22.10
24586;BMP280;12743;52.262;6.172;2022-08-04T06:00:18;100866.94;;;22.27
24586;BMP280;12743;52.262;6.172;2022-08-04T06:02:45;100853.66;;;22.46
24586;BMP280;12743;52.262;6.172;2022-08-04T06:05:13;100884.69;;;22.44
24586;BMP280;12743;52.262;6.172;2022-08-04T06:07:40;100876.47;;;22.54
24586;BMP280;12743;52.262;6.172;2022-08-04T06:10:06;100842.09;;;22.53
24586;BMP280;12743;52.262;6.172;2022-08-04T06:12:44;100899.53;;;22.94
24586;BMP280;12743;52.262;6.172;2022-08-04T06:15:11;100838.63;;;22.52
24586;BMP280;12743;52.262;6.172;2022-08-04T06:17:43;100847.13;;;22.74
24586;BMP280;12743;52.262;6.172;2022-08-04T06:20:11;100858.47;;;23.01
24586;BMP280;12743;52.262;6.172;2022-08-04T06:22:40;100882.88;;;23.30
24586;BMP280;12743;52.262;6.172;2022-08-04T06:25:07;100852.31;;;23.24
24586;BMP280;12743;52.262;6.172;2022-08-04T06:27:34;100893.03;;;23.38
24586;BMP280;12743;52.262;6.172;2022-08-04T06:30:00;100887.78;;;23.31
24586;BMP280;12743;52.262;6.172;2022-08-04T06:32:28;100874.19;;;23.42
24586;BMP280;12743;52.262;6.172;2022-08-04T06:35:14;100873.50;;;23.38
24586;BMP280;12743;52.262;6.172;2022-08-04T06:37:40;100895.50;;;23.49
24586;BMP280;12743;52.262;6.172;2022-08-04T06:40:07;100865.19;;;23.32
24586;BMP280;12743;52.262;6.172;2022-08-04T06:42:34;100884.66;;;23.56
24586;BMP280;12743;52.262;6.172;2022-08-04T06:45:00;100821.47;;;23.16
24586;BMP280;12743;52.262;6.172;2022-08-04T06:47:27;100834.56;;;23.33
24586;BMP280;12743;52.262;6.172;2022-08-04T06:49:54;100785.06;;;23.18
24586;BMP280;12743;52.262;6.172;2022-08-04T06:52:20;100910.59;;;23.98
24586;BMP280;12743;52.262;6.172;2022-08-04T06:54:48;100894.34;;;24.05
24586;BMP280;12743;52.262;6.172;2022-08-04T06:57:16;100896.94;;;24.08
24586;BMP280;12743;52.262;6.172;2022-08-04T06:59:46;100879.66;;;24.09
24586;BMP280;12743;52.262;6.172;2022-08-04T07:02:14;100874.56;;;24.31
24586;BMP280;12743;52.262;6.172;2022-08-04T07:04:45;100856.09;;;24.17
24586;BMP280;12743;52.262;6.172;2022-08-04T07:07:12;100852.41;;;24.27
24586;BMP280;12743;52.262;6.172;2022-08-04T07:09:38;100864.91;;;24.34
24586;BMP280;12743;52.262;6.172;2022-08-04T07:12:08;100883.53;;;24.73
24586;BMP280;12743;52.262;6.172;2022-08-04T07:14:38;100892.75;;;24.88
24586;BMP280;12743;52.262;6.172;2022-08-04T07:17:05;100885.09;;;24.86
24586;BMP280;12743;52.262;6.172;2022-08-04T07:19:32;100796.38;;;24.45
24586;BMP280;12743;52.262;6.172;2022-08-04T07:22:02;100884.81;;;24.97
24586;BMP280;12743;52.262;6.172;2022-08-04T07:24:33;100881.38;;;24.96
24586;BMP280;12743;52.262;6.172;2022-08-04T07:26:58;100885.69;;;24.94
24586;BMP280;12743;52.262;6.172;2022-08-04T07:29:25;100884.50;;;24.95
24586;BMP280;12743;52.262;6.172;2022-08-04T07:31:51;100868.66;;;24.84
24586;BMP280;12743;52.262;6.172;2022-08-04T07:34:18;100889.13;;;24.94
24586;BMP280;12743;52.262;6.172;2022-08-04T07:36:44;100841.44;;;24.54
24586;BMP280;12743;52.262;6.172;2022-08-04T07:39:09;100852.66;;;24.65
24586;BMP280;12743;52.262;6.172;2022-08-04T07:41:35;100843.69;;;24.55
24586;BMP280;12743;52.262;6.172;2022-08-04T07:44:02;100902.78;;;25.00
24586;BMP280;12743;52.262;6.172;2022-08-04T07:46:27;100905.69;;;25.05
24586;BMP280;12743;52.262;6.172;2022-08-04T07:48:53;100891.19;;;25.03
24586;BMP280;12743;52.262;6.172;2022-08-04T07:51:19;100869.94;;;24.92
24586;BMP280;12743;52.262;6.172;2022-08-04T07:53:46;100888.91;;;25.30
24586;BMP280;12743;52.262;6.172;2022-08-04T07:56:12;100870.38;;;25.73
24586;BMP280;12743;52.262;6.172;2022-08-04T07:58:39;100909.34;;;25.81
24586;BMP280;12743;52.262;6.172;2022-08-04T08:01:04;100888.69;;;26.03
24586;BMP280;12743;52.262;6.172;2022-08-04T08:03:30;100894.72;;;26.20
24586;BMP280;12743;52.262;6.172;2022-08-04T08:05:55;100863.59;;;26.06
24586;BMP280;12743;52.262;6.172;2022-08-04T08:08:21;100898.41;;;26.47
24586;BMP280;12743;52.262;6.172;2022-08-04T08:10:47;100904.00;;;26.87
24586;BMP280;12743;52.262;6.172;2022-08-04T08:13:14;100906.63;;;27.00
24586;BMP280;12743;52.262;6.172;2022-08-04T08:15:40;100876.94;;;26.91
24586;BMP280;12743;52.262;6.172;2022-08-04T08:18:07;100885.53;;;27.29
24586;BMP280;12743;52.262;6.172;2022-08-04T08:20:33;100854.34;;;27.19
24586;BMP280;12743;52.262;6.172;2022-08-04T08:23:00;100901.47;;;27.66
24586;BMP280;12743;52.262;6.172;2022-08-04T08:25:25;100886.28;;;27.29
24586;BMP280;12743;52.262;6.172;2022-08-04T08:27:51;100872.50;;;27.27
24586;BMP280;12743;52.262;6.172;2022-08-04T08:30:16;100872.63;;;27.24
24586;BMP280;12743;52.262;6.172;2022-08-04T08:32:42;100877.78;;;27.61
24586;BMP280;12743;52.262;6.172;2022-08-04T08:35:07;100897.28;;;27.65
24586;BMP280;12743;52.262;6.172;2022-08-04T08:37:37;100908.19;;;28.01
24586;BMP280;12743;52.262;6.172;2022-08-04T08:42:54;100895.06;;;28.30
24586;BMP280;12743;52.262;6.172;2022-08-04T08:48:39;100901.22;;;28.67
24586;BMP280;12743;52.262;6.172;2022-08-04T08:51:14;100900.31;;;28.79
24586;BMP280;12743;52.262;6.172;2022-08-04T08:54:02;100886.50;;;28.59
24586;BMP280;12743;52.262;6.172;2022-08-04T08:59:32;100882.28;;;28.13
24586;BMP280;12743;52.262;6.172;2022-08-04T09:02:16;100872.28;;;27.83
24586;BMP280;12743;52.262;6.172;2022-08-04T09:10:43;100888.44;;;28.13
24586;BMP280;12743;52.262;6.172;2022-08-04T09:18:58;100908.53;;;28.21
24586;BMP280;12743;52.262;6.172;2022-08-04T09:21:44;100901.59;;;28.11
24586;BMP280;12743;52.262;6.172;2022-08-04T09:27:02;100912.91;;;28.28
24586;BMP280;12743;52.262;6.172;2022-08-04T09:29:47;100920.69;;;28.44
24586;BMP280;12743;52.262;6.172;2022-08-04T09:32:31;100902.22;;;28.24
24586;BMP280;12743;52.262;6.172;2022-08-04T09:41:25;100924.16;;;28.26
24586;BMP280;12743;52.262;6.172;2022-08-04T09:44:03;100940.41;;;28.63
24586;BMP280;12743;52.262;6.172;2022-08-04T09:46:44;100923.66;;;28.01
24586;BMP280;12743;52.262;6.172;2022-08-04T09:49:32;100924.25;;;28.05
24586;BMP280;12743;52.262;6.172;2022-08-04T09:55:25;100941.16;;;28.81
24586;BMP280;12743;52.262;6.172;2022-08-04T09:58:06;100959.47;;;28.68
24586;BMP280;12743;52.262;6.172;2022-08-04T10:00:44;100936.66;;;28.78
24586;BMP280;12743;52.262;6.172;2022-08-04T10:03:11;100945.63;;;29.20
24586;BMP280;12743;52.262;6.172;2022-08-04T10:05:52;100924.84;;;29.26
24586;BMP280;12743;52.262;6.172;2022-08-04T10:11:02;100947.91;;;28.86
24586;BMP280;12743;52.262;6.172;2022-08-04T10:13:41;100920.72;;;28.26
24586;BMP280;12743;52.262;6.172;2022-08-04T10:27:56;100964.13;;;29.22
24586;BMP280;12743;52.262;6.172;2022-08-04T10:30:24;100954.31;;;29.24
24586;BMP280;12743;52.262;6.172;2022-08-04T10:33:04;100936.81;;;28.75
24586;BMP280;12743;52.262;6.172;2022-08-04T10:35:37;100942.47;;;29.04
24586;BMP280;12743;52.262;6.172;2022-08-04T10:38:17;100957.38;;;28.90
24586;BMP280;12743;52.262;6.172;2022-08-04T10:41:12;100960.25;;;28.96
24586;BMP280;12743;52.262;6.172;2022-08-04T10:46:30;100953.03;;;28.66
24586;BMP280;12743;52.262;6.172;2022-08-04T10:49:01;100969.97;;;28.48
24586;BMP280;12743;52.262;6.172;2022-08-04T10:54:06;100979.00;;;28.05
24586;BMP280;12743;52.262;6.172;2022-08-04T10:56:36;100975.22;;;27.63
24586;BMP280;12743;52.262;6.172;2022-08-04T10:59:10;100969.00;;;27.45
24586;BMP280;12743;52.262;6.172;2022-08-04T11:01:39;100984.00;;;27.76
24586;BMP280;12743;52.262;6.172;2022-08-04T11:04:28;101002.53;;;27.87
24586;BMP280;12743;52.262;6.172;2022-08-04T11:06:57;101000.22;;;27.76
24586;BMP280;12743;52.262;6.172;2022-08-04T11:09:23;101011.78;;;27.34
24586;BMP280;12743;52.262;6.172;2022-08-04T11:11:53;100997.03;;;27.47
24586;BMP280;12743;52.262;6.172;2022-08-04T11:14:23;101011.50;;;27.19
24586;BMP280;12743;52.262;6.172;2022-08-04T11:16:54;101019.84;;;26.78
24586;BMP280;12743;52.262;6.172;2022-08-04T11:22:13;101044.63;;;26.73
24586;BMP280;12743;52.262;6.172;2022-08-04T11:24:53;101068.97;;;26.69
24586;BMP280;12743;52.262;6.172;2022-08-04T11:30:08;101035.91;;;26.31
24586;BMP280;12743;52.262;6.172;2022-08-04T11:32:48;101087.25;;;26.65
24586;BMP280;12743;52.262;6.172;2022-08-04T11:35:41;101083.44;;;26.75
24586;BMP280;12743;52.262;6.172;2022-08-04T11:38:14;101090.03;;;26.74
24586;BMP280;12743;52.262;6.172;2022-08-04T11:40:42;101086.56;;;26.74
24586;BMP280;12743;52.262;6.172;2022-08-04T11:43:12;101109.00;;;26.58
24586;BMP280;12743;52.262;6.172;2022-08-04T11:45:52;101114.31;;;26.49
24586;BMP280;12743;52.262;6.172;2022-08-04T11:48:23;101078.59;;;25.92
24586;BMP280;12743;52.262;6.172;2022-08-04T11:50:53;101065.09;;;26.08
24586;BMP280;12743;52.262;6.172;2022-08-04T11:53:21;101106.03;;;26.28
24586;BMP280;12743;52.262;6.172;2022-08-04T11:55:50;101096.22;;;26.21
24586;BMP280;12743;52.262;6.172;2022-08-04T11:58:17;101077.28;;;26.25
24586;BMP280;12743;52.262;6.172;2022-08-04T12:06:21;101076.56;;;26.37
24586;BMP280;12743;52.262;6.172;2022-08-04T12:09:10;101067.06;;;26.20
24586;BMP280;12743;52.262;6.172;2022-08-04T12:16:53;101073.66;;;25.90
24586;BMP280;12743;52.262;6.172;2022-08-04T12:19:20;101099.19;;;25.98
24586;BMP280;12743;52.262;6.172;2022-08-04T12:27:32;101084.72;;;26.21
24586;BMP280;12743;52.262;6.172;2022-08-04T12:30:00;101071.00;;;25.74
24586;BMP280;12743;52.262;6.172;2022-08-04T12:32:42;101070.53;;;25.92
24586;BMP280;12743;52.262;6.172;2022-08-04T12:35:28;101075.63;;;26.02
24586;BMP280;12743;52.262;6.172;2022-08-04T12:38:02;101069.72;;;26.07
24586;BMP280;12743;52.262;6.172;2022-08-04T12:40:38;101053.53;;;25.66
24586;BMP280;12743;52.262;6.172;2022-08-04T12:43:10;100975.16;;;26.05
24586;BMP280;12743;52.262;6.172;2022-08-04T12:45:43;100992.44;;;25.79
24586;BMP280;12743;52.262;6.172;2022-08-04T12:48:10;101042.47;;;26.05
24586;BMP280;12743;52.262;6.172;2022-08-04T12:50:37;101046.53;;;25.97
24586;BMP280;12743;52.262;6.172;2022-08-04T12:53:11;101055.84;;;26.34
24586;BMP280;12743;52.262;6.172;2022-08-04T12:55:44;101024.06;;;26.29
24586;BMP280;12743;52.262;6.172;2022-08-04T12:58:17;101029.28;;;26.95
24586;BMP280;12743;52.262;6.172;2022-08-04T13:00:51;101047.06;;;26.93
24586;BMP280;12743;52.262;6.172;2022-08-04T13:03:18;101030.41;;;26.47
24586;BMP280;12743;52.262;6.172;2022-08-04T13:05:46;101011.38;;;26.29
24586;BMP280;12743;52.262;6.172;2022-08-04T13:08:13;101039.16;;;26.26
24586;BMP280;12743;52.262;6.172;2022-08-04T13:10:43;101040.25;;;27.35
24586;BMP280;12743;52.262;6.172;2022-08-04T13:13:16;101028.63;;;27.38
24586;BMP280;12743;52.262;6.172;2022-08-04T13:15:42;101046.91;;;27.86
24586;BMP280;12743;52.262;6.172;2022-08-04T13:18:09;101030.94;;;27.79
24586;BMP280;12743;52.262;6.172;2022-08-04T13:20:37;101046.41;;;28.09
24586;BMP280;12743;52.262;6.172;2022-08-04T13:23:05;101042.50;;;27.79
24586;BMP280;12743;52.262;6.172;2022-08-04T13:25:34;101031.13;;;27.20
24586;BMP280;12743;52.262;6.172;2022-08-04T13:28:05;101032.59;;;27.33
24586;BMP280;12743;52.262;6.172;2022-08-04T13:30:33;101028.19;;;27.27
24586;BMP280;12743;52.262;6.172;2022-08-04T13:33:03;101017.47;;;27.36
24586;BMP280;12743;52.262;6.172;2022-08-04T13:35:29;101009.63;;;27.29
24586;BMP280;12743;52.262;6.172;2022-08-04T13:37:57;101041.94;;;28.15
24586;BMP280;12743;52.262;6.172;2022-08-04T13:40:25;101042.66;;;28.37
24586;BMP280;12743;52.262;6.172;2022-08-04T13:42:51;101020.63;;;28.84
24586;BMP280;12743;52.262;6.172;2022-08-04T13:45:21;101020.44;;;29.41
24586;BMP280;12743;52.262;6.172;2022-08-04T13:47:48;101049.81;;;29.16
24586;BMP280;12743;52.262;6.172;2022-08-04T13:50:23;101039.31;;;29.77
24586;BMP280;12743;52.262;6.172;2022-08-04T13:52:56;101022.09;;;29.98
24586;BMP280;12743;52.262;6.172;2022-08-04T13:55:29;100993.16;;;29.95
24586;BMP280;12743;52.262;6.172;2022-08-04T13:58:09;101038.19;;;29.93
24586;BMP280;12743;52.262;6.172;2022-08-04T14:03:09;101039.59;;;29.88
24586;BMP280;12743;52.262;6.172;2022-08-04T14:05:37;100986.41;;;29.49
24586;BMP280;12743;52.262;6.172;2022-08-04T14:08:19;101014.94;;;29.09
24586;BMP280;12743;52.262;6.172;2022-08-04T14:10:56;101024.84;;;30.13
24586;BMP280;12743;52.262;6.172;2022-08-04T14:13:32;101006.66;;;30.37
24586;BMP280;12743;52.262;6.172;2022-08-04T14:15:58;101020.41;;;29.68
24586;BMP280;12743;52.262;6.172;2022-08-04T14:18:29;101046.78;;;30.00
24586;BMP280;12743;52.262;6.172;2022-08-04T14:20:57;101039.06;;;29.57
24586;BMP280;12743;52.262;6.172;2022-08-04T14:23:24;101046.63;;;30.28
24586;BMP280;12743;52.262;6.172;2022-08-04T14:25:50;101047.06;;;30.97
24586;BMP280;12743;52.262;6.172;2022-08-04T14:28:29;101032.19;;;29.89
24586;BMP280;12743;52.262;6.172;2022-08-04T14:31:09;101038.38;;;30.22
24586;BMP280;12743;52.262;6.172;2022-08-04T14:33:37;101000.41;;;29.98
24586;BMP280;12743;52.262;6.172;2022-08-04T14:36:03;101022.34;;;30.33
24586;BMP280;12743;52.262;6.172;2022-08-04T14:38:48;101032.44;;;30.56
24586;BMP280;12743;52.262;6.172;2022-08-04T14:41:15;100994.91;;;30.55
24586;BMP280;12743;52.262;6.172;2022-08-04T14:43:46;100996.97;;;30.22
24586;BMP280;12743;52.262;6.172;2022-08-04T14:46:12;101031.75;;;30.47
24586;BMP280;12743;52.262;6.172;2022-08-04T14:48:38;101027.00;;;30.33
24586;BMP280;12743;52.262;6.172;2022-08-04T14:51:04;101030.81;;;29.93
24586;BMP280;12743;52.262;6.172;2022-08-04T14:53:36;101014.16;;;28.90
24586;BMP280;12743;52.262;6.172;2022-08-04T14:56:04;100983.81;;;29.04
24586;BMP280;12743;52.262;6.172;2022-08-04T14:58:32;100977.22;;;28.60
24586;BMP280;12743;52.262;6.172;2022-08-04T15:01:00;101036.25;;;28.89
24586;BMP280;12743;52.262;6.172;2022-08-04T15:03:27;101035.03;;;28.54
24586;BMP280;12743;52.262;6.172;2022-08-04T15:05:54;101020.16;;;28.58
24586;BMP280;12743;52.262;6.172;2022-08-04T15:08:21;101042.66;;;28.37
24586;BMP280;12743;52.262;6.172;2022-08-04T15:10:46;101029.22;;;28.82
24586;BMP280;12743;52.262;6.172;2022-08-04T15:13:13;101020.56;;;28.48
24586;BMP280;12743;52.262;6.172;2022-08-04T15:15:41;101043.00;;;28.66
24586;BMP280;12743;52.262;6.172;2022-08-04T15:18:10;101020.94;;;28.95
24586;BMP280;12743;52.262;6.172;2022-08-04T15:20:37;100992.22;;;28.97
24586;BMP280;12743;52.262;6.172;2022-08-04T15:23:03;101036.66;;;29.59
24586;BMP280;12743;52.262;6.172;2022-08-04T15:25:38;101038.50;;;28.81
24586;BMP280;12743;52.262;6.172;2022-08-04T15:28:06;100970.72;;;27.39
24586;BMP280;12743;52.262;6.172;2022-08-04T15:30:36;100991.88;;;27.62
24586;BMP280;12743;52.262;6.172;2022-08-04T15:33:03;101009.13;;;27.95
24586;BMP280;12743;52.262;6.172;2022-08-04T15:35:30;101011.41;;;27.75
24586;BMP280;12743;52.262;6.172;2022-08-04T15:43:29;101038.56;;;28.42
24586;BMP280;12743;52.262;6.172;2022-08-04T15:46:03;101026.59;;;28.03
24586;BMP280;12743;52.262;6.172;2022-08-04T15:48:30;101030.88;;;28.22
24586;BMP280;12743;52.262;6.172;2022-08-04T15:53:26;101037.69;;;28.05
24586;BMP280;12743;52.262;6.172;2022-08-04T15:55:52;101047.72;;;28.35
24586;BMP280;12743;52.262;6.172;2022-08-04T15:58:18;101039.22;;;28.15
24586;BMP280;12743;52.262;6.172;2022-08-04T16:08:25;101020.78;;;28.13
24586;BMP280;12743;52.262;6.172;2022-08-04T16:10:51;101031.34;;;28.29
24586;BMP280;12743;52.262;6.172;2022-08-04T16:13:22;101053.97;;;28.14
24586;BMP280;12743;52.262;6.172;2022-08-04T16:18:20;101011.38;;;27.66
24586;BMP280;12743;52.262;6.172;2022-08-04T16:20:46;101059.63;;;27.55
24586;BMP280;12743;52.262;6.172;2022-08-04T16:29:29;101025.13;;;26.69
24586;BMP280;12743;52.262;6.172;2022-08-04T16:34:52;101034.00;;;27.04
24586;BMP280;12743;52.262;6.172;2022-08-04T16:37:20;101031.50;;;27.09
24586;BMP280;12743;52.262;6.172;2022-08-04T16:39:46;101056.38;;;26.66
24586;BMP280;12743;52.262;6.172;2022-08-04T16:42:28;101068.03;;;26.38
24586;BMP280;12743;52.262;6.172;2022-08-04T16:50:15;101084.03;;;26.04
24586;BMP280;12743;52.262;6.172;2022-08-04T16:52:49;101059.38;;;26.18
24586;BMP280;12743;52.262;6.172;2022-08-04T16:55:17;101058.00;;;26.64
24586;BMP280;12743;52.262;6.172;2022-08-04T16:57:47;101070.91;;;26.06
24586;BMP280;12743;52.262;6.172;2022-08-04T17:00:13;101078.41;;;25.99
24586;BMP280;12743;52.262;6.172;2022-08-04T17:02:39;101040.44;;;26.09
24586;BMP280;12743;52.262;6.172;2022-08-04T17:05:05;100970.66;;;25.61
24586;BMP280;12743;52.262;6.172;2022-08-04T17:07:55;101067.38;;;26.34
24586;BMP280;12743;52.262;6.172;2022-08-04T17:10:39;101025.56;;;25.35
24586;BMP280;12743;52.262;6.172;2022-08-04T17:13:28;101074.94;;;25.86
24586;BMP280;12743;52.262;6.172;2022-08-04T17:16:02;101053.28;;;25.77
24586;BMP280;12743;52.262;6.172;2022-08-04T17:18:31;101059.66;;;25.54
24586;BMP280;12743;52.262;6.172;2022-08-04T17:21:12;101078.16;;;25.52
24586;BMP280;12743;52.262;6.172;2022-08-04T17:23:43;101091.72;;;25.61
24586;BMP280;12743;52.262;6.172;2022-08-04T17:26:18;101079.28;;;25.67
24586;BMP280;12743;52.262;6.172;2022-08-04T17:28:48;101053.91;;;25.07
24586;BMP280;12743;52.262;6.172;2022-08-04T17:31:14;101085.16;;;25.33
24586;BMP280;12743;52.262;6.172;2022-08-04T17:33:46;101056.44;;;25.14
24586;BMP280;12743;52.262;6.172;2022-08-04T17:36:12;101057.81;;;25.19
24586;BMP280;12743;52.262;6.172;2022-08-04T17:38:43;101088.19;;;25.03
24586;BMP280;12743;52.262;6.172;2022-08-04T17:41:11;101070.03;;;25.07
24586;BMP280;12743;52.262;6.172;2022-08-04T17:43:44;101088.75;;;24.95
24586;BMP280;12743;52.262;6.172;2022-08-04T17:51:49;101077.69;;;25.70
24586;BMP280;12743;52.262;6.172;2022-08-04T17:54:35;101081.09;;;25.09
24586;BMP280;12743;52.262;6.172;2022-08-04T17:57:21;101039.56;;;24.98
24586;BMP280;12743;52.262;6.172;2022-08-04T17:59:56;101104.91;;;25.11
24586;BMP280;12743;52.262;6.172;2022-08-04T18:02:27;101105.53;;;24.83
24586;BMP280;12743;52.262;6.172;2022-08-04T18:04:54;101083.88;;;24.74
24586;BMP280;12743;52.262;6.172;2022-08-04T18:07:32;101102.09;;;24.47
24586;BMP280;12743;52.262;6.172;2022-08-04T18:09:58;101098.97;;;24.68
24586;BMP280;12743;52.262;6.172;2022-08-04T18:12:30;101101.44;;;24.59
24586;BMP280;12743;52.262;6.172;2022-08-04T18:15:03;101116.44;;;24.92
24586;BMP280;12743;52.262;6.172;2022-08-04T18:17:39;101123.25;;;24.80
24586;BMP280;12743;52.262;6.172;2022-08-04T18:20:09;101120.03;;;24.69
24586;BMP280;12743;52.262;6.172;2022-08-04T18:22:38;101112.69;;;24.34